createdAt,value
2018-04-10T00:00:37.378Z,934.47
2018-04-10T00:01:37.298Z,934.47
2018-04-10T00:02:37.302Z,934.48
2018-04-10T00:03:37.294Z,934.45
2018-04-10T00:04:37.281Z,934.43
2018-04-10T00:05:37.278Z,934.41
2018-04-10T00:06:37.275Z,934.40
2018-04-10T00:07:37.276Z,934.38
2018-04-10T00:08:37.267Z,934.36
2018-04-10T00:09:37.263Z,934.38
2018-04-10T00:10:37.256Z,934.34
2018-04-10T00:11:37.255Z,934.39
2018-04-10T00:12:37.248Z,934.34
2018-04-10T00:13:37.242Z,934.36
2018-04-10T00:14:37.237Z,934.38
2018-04-10T00:15:37.233Z,934.37
2018-04-10T00:16:37.227Z,934.37
2018-04-10T00:17:37.225Z,934.39
2018-04-10T00:18:37.217Z,934.39
2018-04-10T00:19:37.220Z,934.36
2018-04-10T00:20:37.201Z,934.39
2018-04-10T00:21:37.205Z,934.42
2018-04-10T00:22:37.208Z,934.40
2018-04-10T00:23:37.195Z,934.42
2018-04-10T00:24:37.192Z,934.43
2018-04-10T00:25:37.186Z,934.43
2018-04-10T00:26:37.179Z,934.41
2018-04-10T00:27:37.176Z,934.43
2018-04-10T00:28:37.179Z,934.43
2018-04-10T00:29:37.167Z,934.43
2018-04-10T00:30:37.162Z,934.44
2018-04-10T00:31:37.154Z,934.42
2018-04-10T00:32:37.145Z,934.45
2018-04-10T00:33:37.142Z,934.43
2018-04-10T00:34:37.150Z,934.44
2018-04-10T00:35:37.135Z,934.47
2018-04-10T00:36:37.130Z,934.44
2018-04-10T00:37:37.117Z,934.46
2018-04-10T00:38:37.122Z,934.44
2018-04-10T00:39:37.108Z,934.48
2018-04-10T00:40:37.109Z,934.46
2018-04-10T00:41:37.111Z,934.47
2018-04-10T00:42:37.113Z,934.48
2018-04-10T00:43:37.086Z,934.50
2018-04-10T00:44:37.089Z,934.48
2018-04-10T00:45:37.202Z,934.48
2018-04-10T00:46:37.086Z,934.44
2018-04-10T00:47:37.073Z,934.48
2018-04-10T00:48:37.072Z,934.46
2018-04-10T00:49:37.058Z,934.50
2018-04-10T00:50:37.068Z,934.49
2018-04-10T00:51:37.050Z,934.48
2018-04-10T00:52:37.042Z,934.48
2018-04-10T00:53:37.043Z,934.52
2018-04-10T00:54:37.035Z,934.49
2018-04-10T00:55:37.034Z,934.49
2018-04-10T00:56:37.026Z,934.46
2018-04-10T00:57:37.034Z,934.44
2018-04-10T00:58:37.013Z,934.42
2018-04-10T00:59:37.023Z,934.40
2018-04-10T01:00:37.014Z,934.42
2018-04-10T01:01:37.035Z,934.38
2018-04-10T01:02:36.990Z,934.40
2018-04-10T01:03:36.993Z,934.42
2018-04-10T01:04:36.991Z,934.42
2018-04-10T01:05:36.977Z,934.38
2018-04-10T01:06:36.971Z,934.38
2018-04-10T01:07:36.982Z,934.37
2018-04-10T01:08:36.967Z,934.40
2018-04-10T01:09:36.973Z,934.36
2018-04-10T01:10:36.956Z,934.39
2018-04-10T01:11:36.949Z,934.38
2018-04-10T01:12:36.944Z,934.38
2018-04-10T01:13:36.941Z,934.38
2018-04-10T01:14:36.941Z,934.37
2018-04-10T01:15:36.935Z,934.41
2018-04-10T01:16:36.931Z,934.40
2018-04-10T01:17:36.925Z,934.35
2018-04-10T01:18:36.911Z,934.36
2018-04-10T01:19:36.913Z,934.37
2018-04-10T01:20:36.914Z,934.33
2018-04-10T01:21:36.901Z,934.37
2018-04-10T01:22:36.930Z,934.39
2018-04-10T01:23:36.893Z,934.37
2018-04-10T01:24:36.894Z,934.37
2018-04-10T01:25:36.883Z,934.31
2018-04-10T01:26:36.881Z,934.32
2018-04-10T01:27:36.873Z,934.34
2018-04-10T01:28:36.869Z,934.31
2018-04-10T01:29:36.871Z,934.37
2018-04-10T02:02:00.219Z,934.31
2018-04-10T02:03:00.188Z,934.28
2018-04-10T02:04:53.119Z,934.25
2018-04-10T02:05:53.096Z,934.24
2018-04-10T02:07:46.046Z,934.23
2018-04-10T02:08:46.000Z,934.19
2018-04-10T02:10:38.963Z,934.21
2018-04-10T02:11:38.944Z,934.15
2018-04-10T02:13:31.911Z,934.15
2018-04-10T02:14:31.865Z,934.14
2018-04-10T02:16:24.776Z,934.13
2018-04-10T02:17:24.786Z,934.12
2018-04-10T02:19:17.701Z,934.12
2018-04-10T02:20:17.668Z,934.13
2018-04-10T02:21:17.667Z,934.14
2018-04-10T02:22:17.651Z,934.13
2018-04-10T02:23:17.649Z,934.17
2018-04-10T02:24:17.651Z,934.18
2018-04-10T02:25:17.644Z,934.14
2018-04-10T02:26:17.639Z,934.14
2018-04-10T02:27:17.632Z,934.11
2018-04-10T02:28:17.629Z,934.03
2018-04-10T02:29:17.611Z,934.05
2018-04-10T02:30:17.613Z,933.93
2018-04-10T02:31:17.604Z,933.94
2018-04-10T02:32:17.602Z,933.86
2018-04-10T02:33:17.598Z,933.80
2018-04-10T02:34:17.597Z,933.78
2018-04-10T02:35:17.589Z,933.76
2018-04-10T02:36:17.578Z,933.72
2018-04-10T02:37:17.578Z,933.70
2018-04-10T02:38:17.576Z,933.68
2018-04-10T02:39:17.565Z,933.66
2018-04-10T02:40:17.561Z,933.64
2018-04-10T02:41:17.576Z,933.66
2018-04-10T02:42:17.553Z,933.63
2018-04-10T02:43:17.552Z,933.61
2018-04-10T02:44:17.550Z,933.63
2018-04-10T02:45:17.539Z,933.58
2018-04-10T02:46:17.528Z,933.60
2018-04-10T02:47:17.524Z,933.60
2018-04-10T02:48:17.523Z,933.62
2018-04-10T02:49:17.513Z,933.64
2018-04-10T02:50:17.511Z,933.64
2018-04-10T02:51:17.513Z,933.64
2018-04-10T02:52:17.503Z,933.61
2018-04-10T02:53:17.489Z,933.67
2018-04-10T02:54:17.490Z,933.64
2018-04-10T02:55:17.481Z,933.63
2018-04-10T02:56:17.477Z,933.63
2018-04-10T02:57:17.479Z,933.65
2018-04-10T02:58:17.467Z,933.62
2018-04-10T02:59:17.455Z,933.67
2018-04-10T03:00:17.461Z,933.65
2018-04-10T03:01:17.454Z,933.66
2018-04-10T03:02:17.460Z,933.65
2018-04-10T03:03:17.476Z,933.70
2018-04-10T03:04:17.439Z,933.73
2018-04-10T03:05:17.436Z,933.70
2018-04-10T03:06:17.429Z,933.75
2018-04-10T03:07:17.423Z,933.76
2018-04-10T03:08:17.416Z,933.75
2018-04-10T03:09:17.409Z,933.70
2018-04-10T03:10:17.406Z,933.67
2018-04-10T03:11:17.406Z,933.66
2018-04-10T03:12:17.406Z,933.57
2018-04-10T03:13:17.390Z,933.58
2018-04-10T03:14:17.386Z,933.58
2018-04-10T03:15:17.382Z,933.55
2018-04-10T03:16:17.376Z,933.48
2018-04-10T03:17:17.363Z,933.49
2018-04-10T03:18:17.362Z,933.52
2018-04-10T03:19:17.362Z,933.53
2018-04-10T03:20:17.352Z,933.53
2018-04-10T03:21:17.343Z,933.48
2018-04-10T03:22:17.339Z,933.47
2018-04-10T03:23:17.349Z,933.50
2018-04-10T03:24:17.339Z,933.48
2018-04-10T03:25:17.325Z,933.50
2018-04-10T03:26:17.316Z,933.48
2018-04-10T03:27:17.323Z,933.42
2018-04-10T03:28:17.320Z,933.40
2018-04-10T03:29:17.307Z,933.38
2018-04-10T03:30:17.296Z,933.39
2018-04-10T03:31:17.296Z,933.38
2018-04-10T03:32:17.286Z,933.38
2018-04-10T03:33:17.280Z,933.36
2018-04-10T03:34:17.273Z,933.38
2018-04-10T03:35:17.292Z,933.37
2018-04-10T03:36:17.272Z,933.37
2018-04-10T03:37:17.260Z,933.40
2018-04-10T03:38:17.250Z,933.41
2018-04-10T03:39:17.246Z,933.36
2018-04-10T03:40:17.242Z,933.33
2018-04-10T03:41:17.243Z,933.37
2018-04-10T03:42:17.236Z,933.32
2018-04-10T03:43:17.218Z,933.32
2018-04-10T03:44:17.216Z,933.30
2018-04-10T03:45:17.207Z,933.33
2018-04-10T03:46:17.205Z,933.28
2018-04-10T03:47:17.196Z,933.26
2018-04-10T03:48:17.245Z,933.25
2018-04-10T03:49:17.180Z,933.22
2018-04-10T03:50:17.185Z,933.20
2018-04-10T03:51:17.224Z,933.20
2018-04-10T03:52:17.169Z,933.14
2018-04-10T03:53:17.159Z,933.15
2018-04-10T03:54:17.172Z,933.12
2018-04-10T03:55:17.173Z,933.15
2018-04-10T03:56:17.136Z,933.12
2018-04-10T03:57:17.133Z,933.13
2018-04-10T03:58:17.137Z,933.17
2018-04-10T03:59:17.126Z,933.15
2018-04-10T04:00:17.119Z,933.13
2018-04-10T04:01:17.118Z,933.14
2018-04-10T04:02:17.098Z,933.09
2018-04-10T04:03:17.103Z,933.04
2018-04-10T04:04:17.098Z,933.02
2018-04-10T04:05:17.097Z,932.95
2018-04-10T04:06:17.095Z,932.94
2018-04-10T04:07:17.077Z,932.88
2018-04-10T04:08:17.065Z,932.86
2018-04-10T04:09:17.054Z,932.75
2018-04-10T04:10:17.056Z,932.74
2018-04-10T04:11:17.049Z,932.69
2018-04-10T04:12:17.045Z,932.65
2018-04-10T04:13:17.032Z,932.62
2018-04-10T04:14:17.032Z,932.59
2018-04-10T04:15:17.029Z,932.57
2018-04-10T04:16:17.017Z,932.55
2018-04-10T04:17:17.008Z,932.60
2018-04-10T04:18:16.997Z,932.61
2018-04-10T04:19:17.006Z,932.57
2018-04-10T04:20:16.988Z,932.60
2018-04-10T04:21:16.987Z,932.63
2018-04-10T04:22:16.980Z,932.64
2018-04-10T04:23:16.974Z,932.66
2018-04-10T04:24:17.002Z,932.61
2018-04-10T04:25:16.957Z,932.60
2018-04-10T04:26:16.953Z,932.62
2018-04-10T04:27:16.947Z,932.65
2018-04-10T04:28:16.939Z,932.66
2018-04-10T04:29:16.935Z,932.67
2018-04-10T04:30:16.927Z,932.70
2018-04-10T04:31:16.927Z,932.72
2018-04-10T04:32:16.912Z,932.74
2018-04-10T04:33:16.909Z,932.75
2018-04-10T04:34:16.902Z,932.83
2018-04-10T04:35:16.900Z,932.90
2018-04-10T04:36:16.891Z,932.91
2018-04-10T04:37:16.889Z,932.96
2018-04-10T04:38:16.870Z,932.99
2018-04-10T04:39:16.885Z,933.01
2018-04-10T04:40:16.863Z,933.07
2018-04-10T04:41:16.863Z,933.11
2018-04-10T04:42:16.849Z,933.13
2018-04-10T04:43:16.864Z,933.14
2018-04-10T04:44:16.847Z,933.16
2018-04-10T04:45:16.836Z,933.19
2018-04-10T04:46:16.827Z,933.21
2018-04-10T04:47:16.819Z,933.19
2018-04-10T04:48:16.818Z,933.25
2018-04-10T04:49:16.822Z,933.27
2018-04-10T04:50:16.814Z,933.25
2018-04-10T04:51:16.797Z,933.27
2018-04-10T04:52:16.787Z,933.22
2018-04-10T04:53:16.785Z,933.24
2018-04-10T04:54:16.778Z,933.23
2018-04-10T04:55:16.774Z,933.27
2018-04-10T04:56:16.769Z,933.27
2018-04-10T04:57:16.770Z,933.28
2018-04-10T04:58:16.764Z,933.28
2018-04-10T04:59:16.739Z,933.28
2018-04-10T05:00:16.745Z,933.33
2018-04-10T05:01:16.735Z,933.30
2018-04-10T05:02:16.735Z,933.32
2018-04-10T05:03:16.726Z,933.34
2018-04-10T05:04:16.727Z,933.31
2018-04-10T05:05:16.719Z,933.34
2018-04-10T05:06:16.702Z,933.35
2018-04-10T05:07:16.717Z,933.37
2018-04-10T05:08:16.704Z,933.39
2018-04-10T05:09:16.696Z,933.38
2018-04-10T05:10:16.690Z,933.40
2018-04-10T05:11:16.681Z,933.49
2018-04-10T05:12:17.204Z,933.48
2018-04-10T05:13:16.666Z,933.51
2018-04-10T05:14:16.660Z,933.51
2018-04-10T05:15:16.655Z,933.51
2018-04-10T05:16:16.651Z,933.55
2018-04-10T05:17:16.644Z,933.51
2018-04-10T05:18:16.671Z,933.47
2018-04-10T05:19:16.665Z,933.44
2018-04-10T05:20:16.636Z,933.43
2018-04-10T05:21:16.631Z,933.44
2018-04-10T05:22:16.619Z,933.45
2018-04-10T05:23:16.613Z,933.49
2018-04-10T05:24:16.624Z,933.54
2018-04-10T05:25:16.608Z,933.54
2018-04-10T05:26:16.623Z,933.55
2018-04-10T05:27:16.586Z,933.58
2018-04-10T05:28:16.589Z,933.64
2018-04-10T05:29:16.587Z,933.65
2018-04-10T05:30:16.591Z,933.64
2018-04-10T05:31:16.580Z,933.63
2018-04-10T05:32:16.586Z,933.58
2018-04-10T05:33:16.571Z,933.63
2018-04-10T05:34:16.565Z,933.70
2018-04-10T05:35:16.553Z,933.68
2018-04-10T05:36:16.557Z,933.63
2018-04-10T05:37:16.550Z,933.65
2018-04-10T05:38:16.541Z,933.63
2018-04-10T05:39:16.543Z,933.66
2018-04-10T05:40:16.535Z,933.65
2018-04-10T05:41:16.556Z,933.67
2018-04-10T05:42:16.523Z,933.63
2018-04-10T05:43:16.526Z,933.66
2018-04-10T05:44:16.519Z,933.57
2018-04-10T05:45:16.513Z,933.58
2018-04-10T05:46:16.505Z,933.62
2018-04-10T05:47:16.501Z,933.68
2018-04-10T05:48:16.505Z,933.66
2018-04-10T05:49:16.489Z,933.67
2018-04-10T05:50:16.496Z,933.63
2018-04-10T05:51:16.486Z,933.66
2018-04-10T05:52:16.487Z,933.67
2018-04-10T05:53:16.483Z,933.63
2018-04-10T05:54:16.483Z,933.62
2018-04-10T05:55:16.477Z,933.63
2018-04-10T05:56:16.465Z,933.65
2018-04-10T05:57:16.462Z,933.63
2018-04-10T05:58:16.458Z,933.62
2018-04-10T05:59:16.456Z,933.62
2018-04-10T06:00:16.448Z,933.62
2018-04-10T06:01:16.444Z,933.59
2018-04-10T06:02:16.449Z,933.57
2018-04-10T06:03:16.458Z,933.56
2018-04-10T06:04:16.448Z,933.55
2018-04-10T06:05:16.433Z,933.55
2018-04-10T06:06:16.436Z,933.55
2018-04-10T06:07:16.443Z,933.54
2018-04-10T06:08:16.423Z,933.55
2018-04-10T06:09:16.420Z,933.55
2018-04-10T06:10:16.414Z,933.53
2018-04-10T06:11:16.413Z,933.55
2018-04-10T06:12:16.414Z,933.55
2018-04-10T06:13:16.408Z,933.55
2018-04-10T06:14:16.408Z,933.52
2018-04-10T06:15:16.402Z,933.56
2018-04-10T06:16:16.408Z,933.56
2018-04-10T06:17:16.429Z,933.53
2018-04-10T06:18:16.390Z,933.60
2018-04-10T06:19:16.401Z,933.54
2018-04-10T06:20:16.398Z,933.56
2018-04-10T06:21:16.392Z,933.57
2018-04-10T06:22:16.389Z,933.57
2018-04-10T06:23:16.384Z,933.58
2018-04-10T06:24:16.387Z,933.62
2018-04-10T06:25:16.378Z,933.62
2018-04-10T06:26:16.382Z,933.55
2018-04-10T06:27:16.370Z,933.63
2018-04-10T06:28:16.372Z,933.59
2018-04-10T06:29:16.363Z,933.60
2018-04-10T06:30:16.366Z,933.60
2018-04-10T06:31:16.358Z,933.58
2018-04-10T06:32:16.365Z,933.61
2018-04-10T06:33:16.350Z,933.61
2018-04-10T06:34:16.363Z,933.61
2018-04-10T06:35:16.366Z,933.63
2018-04-10T06:36:16.353Z,933.61
2018-04-10T06:37:16.367Z,933.66
2018-04-10T06:38:16.345Z,933.70
2018-04-10T06:39:16.363Z,933.65
2018-04-10T06:40:16.352Z,933.69
2018-04-10T06:41:16.343Z,933.69
2018-04-10T06:42:16.343Z,933.63
2018-04-10T06:43:16.339Z,933.59
2018-04-10T06:44:16.328Z,933.61
2018-04-10T06:45:16.330Z,933.64
2018-04-10T06:46:16.330Z,933.62
2018-04-10T06:47:16.334Z,933.60
2018-04-10T06:48:16.326Z,933.58
2018-04-10T06:49:16.327Z,933.61
2018-04-10T06:50:16.323Z,933.56
2018-04-10T06:51:16.320Z,933.56
2018-04-10T06:52:16.323Z,933.51
2018-04-10T06:53:16.323Z,933.55
2018-04-10T06:54:16.320Z,933.48
2018-04-10T06:55:16.341Z,933.50
2018-04-10T06:56:16.318Z,933.53
2018-04-10T06:57:16.315Z,933.50
2018-04-10T06:58:16.308Z,933.54
2018-04-10T06:59:16.307Z,933.52
2018-04-10T07:00:16.313Z,933.55
2018-04-10T07:01:16.307Z,933.60
2018-04-10T07:02:16.310Z,933.56
2018-04-10T07:03:16.316Z,933.59
2018-04-10T07:04:16.294Z,933.58
2018-04-10T07:05:16.311Z,933.62
2018-04-10T07:06:16.300Z,933.52
2018-04-10T07:07:16.311Z,933.53
2018-04-10T07:08:16.306Z,933.52
2018-04-10T07:09:16.299Z,933.51
2018-04-10T07:10:16.300Z,933.51
2018-04-10T07:11:16.329Z,933.49
2018-04-10T07:12:16.322Z,933.49
2018-04-10T07:13:16.326Z,933.50
2018-04-10T07:14:16.302Z,933.53
2018-04-10T07:15:16.310Z,933.52
2018-04-10T07:16:16.299Z,933.56
2018-04-10T07:17:16.295Z,933.53
2018-04-10T07:18:16.288Z,933.48
2018-04-10T07:19:16.326Z,933.50
2018-04-10T07:20:16.298Z,933.47
2018-04-10T07:21:16.297Z,933.44
2018-04-10T07:22:16.299Z,933.43
2018-04-10T07:23:16.307Z,933.42
2018-04-10T07:24:16.302Z,933.40
2018-04-10T07:25:16.294Z,933.40
2018-04-10T07:26:16.292Z,933.34
2018-04-10T07:27:16.303Z,933.34
2018-04-10T07:28:16.313Z,933.36
2018-04-10T07:29:16.295Z,933.33
2018-04-10T07:30:16.293Z,933.37
2018-04-10T07:31:16.296Z,933.35
2018-04-10T07:32:16.300Z,933.39
2018-04-10T07:33:16.302Z,933.41
2018-04-10T07:34:16.305Z,933.43
2018-04-10T07:35:16.308Z,933.42
2018-04-10T07:36:16.304Z,933.43
2018-04-10T07:37:16.308Z,933.36
2018-04-10T07:38:16.307Z,933.38
2018-04-10T07:39:16.299Z,933.42
2018-04-10T07:40:16.310Z,933.41
2018-04-10T07:41:16.352Z,933.38
2018-04-10T07:42:16.318Z,933.39
2018-04-10T07:43:16.375Z,933.39
2018-04-10T07:44:16.316Z,933.38
2018-04-10T07:45:16.332Z,933.39
2018-04-10T07:46:16.331Z,933.35
2018-04-10T07:47:16.328Z,933.33
2018-04-10T07:48:16.326Z,933.26
2018-04-10T07:49:16.342Z,933.28
2018-04-10T07:50:16.348Z,933.26
2018-04-10T07:51:16.365Z,933.15
2018-04-10T07:52:16.350Z,933.10
2018-04-10T07:53:16.361Z,933.14
2018-04-10T07:54:16.364Z,933.13
2018-04-10T07:55:16.365Z,933.13
2018-04-10T07:56:16.366Z,933.20
2018-04-10T07:57:16.373Z,933.19
2018-04-10T07:58:16.379Z,933.17
2018-04-10T07:59:16.383Z,933.11
2018-04-10T08:00:16.409Z,933.12
2018-04-10T08:01:16.400Z,933.09
2018-04-10T08:02:16.396Z,933.12
2018-04-10T08:03:16.415Z,933.07
2018-04-10T08:04:16.420Z,933.07
2018-04-10T08:05:16.415Z,933.03
2018-04-10T08:06:16.429Z,933.05
2018-04-10T08:07:16.440Z,933.03
2018-04-10T08:08:16.444Z,933.04
2018-04-10T08:09:16.492Z,932.99
2018-04-10T08:10:16.462Z,932.96
2018-04-10T08:11:16.461Z,933.04
2018-04-10T08:12:16.475Z,933.01
2018-04-10T08:13:16.488Z,933.08
2018-04-10T08:14:16.490Z,933.10
2018-04-10T08:15:16.518Z,933.15
2018-04-10T08:16:16.509Z,933.20
2018-04-10T08:17:16.518Z,933.23
2018-04-10T08:18:16.515Z,933.25
2018-04-10T08:19:16.533Z,933.23
2018-04-10T08:20:16.541Z,933.22
2018-04-10T08:21:16.543Z,933.19
2018-04-10T08:22:16.566Z,933.17
2018-04-10T08:23:16.559Z,933.18
2018-04-10T08:24:16.571Z,933.20
2018-04-10T08:25:16.595Z,933.23
2018-04-10T08:26:16.586Z,933.23
2018-04-10T08:27:16.603Z,933.28
2018-04-10T08:28:16.613Z,933.33
2018-04-10T08:29:16.617Z,933.35
2018-04-10T08:30:16.636Z,933.39
2018-04-10T08:31:16.645Z,933.45
2018-04-10T08:32:16.653Z,933.48
2018-04-10T08:33:16.651Z,933.44
2018-04-10T08:34:16.687Z,933.48
2018-04-10T08:35:16.693Z,933.51
2018-04-10T08:36:16.692Z,933.52
2018-04-10T08:37:16.703Z,933.52
2018-04-10T08:38:16.717Z,933.62
2018-04-10T08:39:16.780Z,933.57
2018-04-10T08:40:16.742Z,933.59
2018-04-10T08:41:16.753Z,933.66
2018-04-10T08:42:16.764Z,933.67
2018-04-10T08:43:16.778Z,933.64
2018-04-10T08:44:16.795Z,933.73
2018-04-10T08:45:16.802Z,933.67
2018-04-10T08:46:16.820Z,933.70
2018-04-10T08:47:16.834Z,933.69
2018-04-10T08:48:16.844Z,933.71
2018-04-10T08:49:16.877Z,933.64
2018-04-10T08:50:16.868Z,933.65
2018-04-10T08:51:16.882Z,933.62
2018-04-10T08:52:16.895Z,933.58
2018-04-10T08:53:16.912Z,933.57
2018-04-10T08:54:16.934Z,933.53
2018-04-10T08:55:16.934Z,933.53
2018-04-10T08:56:16.953Z,933.61
2018-04-10T08:57:17.050Z,933.61
2018-04-10T08:58:16.973Z,933.54
2018-04-10T08:59:16.980Z,933.57
2018-04-10T09:00:17.001Z,933.56
2018-04-10T09:01:17.022Z,933.53
2018-04-10T09:02:17.051Z,933.55
2018-04-10T09:03:17.128Z,933.53
2018-04-10T09:04:17.064Z,933.57
2018-04-10T09:05:17.078Z,933.55
2018-04-10T09:06:17.085Z,933.55
2018-04-10T09:07:17.096Z,933.54
2018-04-10T09:08:17.107Z,933.52
2018-04-10T09:09:17.175Z,933.49
2018-04-10T09:10:17.138Z,933.51
2018-04-10T09:11:17.161Z,933.53
2018-04-10T09:12:17.180Z,933.53
2018-04-10T09:13:17.186Z,933.53
2018-04-10T09:14:17.203Z,933.50
2018-04-10T09:15:17.220Z,933.49
2018-04-10T09:16:17.276Z,933.47
2018-04-10T09:17:17.244Z,933.45
2018-04-10T09:18:17.285Z,933.49
2018-04-10T09:19:17.274Z,933.53
2018-04-10T09:20:17.293Z,933.47
2018-04-10T09:21:17.316Z,933.48
2018-04-10T09:22:17.318Z,933.48
2018-04-10T09:23:17.339Z,933.51
2018-04-10T09:24:17.350Z,933.45
2018-04-10T09:25:17.363Z,933.50
2018-04-10T09:26:17.374Z,933.48
2018-04-10T09:27:17.418Z,933.49
2018-04-10T09:28:17.430Z,933.49
2018-04-10T09:29:17.421Z,933.45
2018-04-10T09:30:17.442Z,933.41
2018-04-10T09:31:17.456Z,933.42
2018-04-10T09:32:17.475Z,933.41
2018-04-10T09:33:17.481Z,933.40
2018-04-10T09:34:17.499Z,933.27
2018-04-10T09:35:17.520Z,933.30
2018-04-10T09:36:17.529Z,933.24
2018-04-10T09:37:17.544Z,933.13
2018-04-10T09:38:17.562Z,933.11
2018-04-10T09:39:17.574Z,933.19
2018-04-10T09:41:17.617Z,933.16
2018-04-10T09:42:17.622Z,933.14
2018-04-10T09:43:17.624Z,933.12
2018-04-10T09:44:17.647Z,933.13
2018-04-10T09:45:17.665Z,933.15
2018-04-10T09:46:17.665Z,933.13
2018-04-10T09:47:17.678Z,933.17
2018-04-10T09:48:17.684Z,933.19
2018-04-10T09:49:17.691Z,933.17
2018-04-10T09:50:17.713Z,933.17
2018-04-10T09:51:17.742Z,933.07
2018-04-10T09:52:17.734Z,933.20
2018-04-10T09:53:17.744Z,933.11
2018-04-10T09:54:17.757Z,933.09
2018-04-10T09:55:17.764Z,933.06
2018-04-10T09:56:17.782Z,933.06
2018-04-10T09:57:17.797Z,933.00
2018-04-10T09:58:17.798Z,933.04
2018-04-10T09:59:17.817Z,933.00
2018-04-10T10:00:17.830Z,933.05
2018-04-10T10:01:17.832Z,933.05
2018-04-10T10:02:17.852Z,933.10
2018-04-10T10:03:17.864Z,933.14
2018-04-10T10:04:17.876Z,933.16
2018-04-10T10:05:17.886Z,933.18
2018-04-10T10:06:17.900Z,933.19
2018-04-10T10:07:17.919Z,933.23
2018-04-10T10:08:17.926Z,933.17
2018-04-10T10:09:17.941Z,933.14
2018-04-10T10:10:17.991Z,933.07
2018-04-10T10:11:17.971Z,933.10
2018-04-10T10:12:17.991Z,933.11
2018-04-10T10:13:17.997Z,933.11
2018-04-10T10:14:18.009Z,933.13
2018-04-10T10:15:18.027Z,933.09
2018-04-10T10:16:18.047Z,933.13
2018-04-10T10:17:18.064Z,933.12
2018-04-10T10:18:18.083Z,933.16
2018-04-10T10:19:18.089Z,933.18
2018-04-10T10:20:18.108Z,933.16
2018-04-10T10:21:18.124Z,933.16
2018-04-10T10:22:18.132Z,933.13
2018-04-10T10:23:18.153Z,933.17
2018-04-10T10:24:18.164Z,933.21
2018-04-10T10:25:18.186Z,933.22
2018-04-10T10:26:18.192Z,933.24
2018-04-10T10:27:18.215Z,933.20
2018-04-10T10:28:18.227Z,933.23
2018-04-10T10:29:18.252Z,933.26
2018-04-10T10:30:18.270Z,933.22
2018-04-10T10:31:18.280Z,933.19
2018-04-10T10:32:18.322Z,933.23
2018-04-10T10:33:18.316Z,933.19
2018-04-10T10:34:18.333Z,933.22
2018-04-10T10:35:18.363Z,933.23
2018-04-10T10:36:18.377Z,933.20
2018-04-10T10:37:18.403Z,933.26
2018-04-10T10:38:18.403Z,933.18
2018-04-10T10:39:18.432Z,933.14
2018-04-10T10:40:18.440Z,933.12
2018-04-10T10:41:18.462Z,933.09
2018-04-10T10:42:18.471Z,933.09
2018-04-10T10:43:18.489Z,933.09
2018-04-10T10:44:18.507Z,933.06
2018-04-10T10:45:18.524Z,933.07
2018-04-10T10:46:18.537Z,933.06
2018-04-10T10:47:18.563Z,933.06
2018-04-10T10:48:18.578Z,933.04
2018-04-10T10:49:18.595Z,933.06
2018-04-10T10:50:18.615Z,933.05
2018-04-10T10:51:18.632Z,933.06
2018-04-10T10:52:18.653Z,933.05
2018-04-10T10:53:18.669Z,933.00
2018-04-10T10:54:18.702Z,933.00
2018-04-10T10:55:18.704Z,932.96
2018-04-10T10:56:18.720Z,932.96
2018-04-10T10:57:18.784Z,932.91
2018-04-10T10:58:18.754Z,932.92
2018-04-10T10:59:18.773Z,932.89
2018-04-10T11:00:18.794Z,932.86
2018-04-10T11:01:18.858Z,932.88
2018-04-10T11:02:18.832Z,932.87
2018-04-10T11:03:18.850Z,932.88
2018-04-10T11:04:18.877Z,932.85
2018-04-10T11:05:18.889Z,932.82
2018-04-10T11:06:18.906Z,932.84
2018-04-10T11:07:18.924Z,932.86
2018-04-10T11:08:18.943Z,932.85
2018-04-10T11:09:18.966Z,932.86
2018-04-10T11:10:18.993Z,932.84
2018-04-10T11:11:18.999Z,932.84
2018-04-10T11:12:19.018Z,932.80
2018-04-10T11:13:19.025Z,932.76
2018-04-10T11:14:19.051Z,932.77
2018-04-10T11:15:19.069Z,932.73
2018-04-10T11:16:19.086Z,932.78
2018-04-10T11:17:19.107Z,932.73
2018-04-10T11:18:19.115Z,932.75
2018-04-10T11:19:19.139Z,932.71
2018-04-10T11:20:19.162Z,932.70
2018-04-10T11:21:19.178Z,932.69
2018-04-10T11:22:19.194Z,932.67
2018-04-10T11:23:19.209Z,932.73
2018-04-10T11:24:19.230Z,932.73
2018-04-10T11:25:19.249Z,932.72
2018-04-10T11:26:19.263Z,932.74
2018-04-10T11:27:19.299Z,932.74
2018-04-10T11:28:19.303Z,932.71
2018-04-10T11:29:19.319Z,932.74
2018-04-10T11:30:19.351Z,932.69
2018-04-10T11:31:19.352Z,932.69
2018-04-10T11:32:19.376Z,932.67
2018-04-10T11:33:19.404Z,932.69
2018-04-10T11:34:19.415Z,932.64
2018-04-10T11:35:19.431Z,932.64
2018-04-10T11:36:19.444Z,932.61
2018-04-10T11:37:19.466Z,932.60
2018-04-10T11:38:19.483Z,932.57
2018-04-10T11:39:19.515Z,932.57
2018-04-10T11:40:19.527Z,932.59
2018-04-10T11:41:19.550Z,932.54
2018-04-10T11:42:19.564Z,932.59
2018-04-10T11:43:19.580Z,932.59
2018-04-10T11:44:19.592Z,932.57
2018-04-10T11:45:19.632Z,932.51
2018-04-10T11:46:19.630Z,932.53
2018-04-10T11:47:19.646Z,932.53
2018-04-10T11:48:19.675Z,932.56
2018-04-10T11:49:19.685Z,932.53
2018-04-10T11:50:19.706Z,932.57
2018-04-10T11:51:19.730Z,932.55
2018-04-10T11:52:19.738Z,932.49
2018-04-10T11:53:19.749Z,932.55
2018-04-10T11:54:19.775Z,932.55
2018-04-10T11:55:19.809Z,932.54
2018-04-10T11:56:19.808Z,932.55
2018-04-10T11:57:19.842Z,932.55
2018-04-10T11:58:19.846Z,932.50
2018-04-10T11:59:19.880Z,932.50
2018-04-10T12:00:19.890Z,932.54
2018-04-10T12:01:19.899Z,932.60
2018-04-10T12:02:19.915Z,932.56
2018-04-10T12:03:19.937Z,932.56
2018-04-10T12:04:19.953Z,932.57
2018-04-10T12:05:19.975Z,932.55
2018-04-10T12:06:20.005Z,932.56
2018-04-10T12:07:20.010Z,932.51
2018-04-10T12:08:20.026Z,932.48
2018-04-10T12:09:20.029Z,932.50
2018-04-10T12:10:20.070Z,932.50
2018-04-10T12:11:20.080Z,932.48
2018-04-10T12:12:20.093Z,932.49
2018-04-10T12:13:20.116Z,932.47
2018-04-10T12:14:20.129Z,932.44
2018-04-10T12:15:20.146Z,932.47
2018-04-10T12:16:20.163Z,932.46
2018-04-10T12:17:20.192Z,932.44
2018-04-10T12:18:20.201Z,932.49
2018-04-10T12:19:20.220Z,932.47
2018-04-10T12:20:20.244Z,932.44
2018-04-10T12:21:20.257Z,932.46
2018-04-10T12:22:20.280Z,932.44
2018-04-10T12:23:20.295Z,932.46
2018-04-10T12:24:20.341Z,932.45
2018-04-10T12:25:20.321Z,932.48
2018-04-10T12:26:20.336Z,932.43
2018-04-10T12:27:20.360Z,932.40
2018-04-10T12:28:20.376Z,932.35
2018-04-10T12:29:20.383Z,932.38
2018-04-10T12:30:20.405Z,932.40
2018-04-10T12:31:20.410Z,932.34
2018-04-10T12:32:20.426Z,932.30
2018-04-10T12:33:20.457Z,932.27
2018-04-10T12:34:20.443Z,932.31
2018-04-10T12:35:20.463Z,932.35
2018-04-10T12:36:20.471Z,932.40
2018-04-10T12:37:20.485Z,932.34
2018-04-10T12:38:20.479Z,932.37
2018-04-10T12:39:20.499Z,932.38
2018-04-10T12:40:20.514Z,932.33
2018-04-10T12:41:20.517Z,932.30
2018-04-10T12:42:20.525Z,932.29
2018-04-10T12:43:20.545Z,932.22
2018-04-10T12:44:20.543Z,932.30
2018-04-10T12:45:20.559Z,932.28
2018-04-10T12:46:20.556Z,932.27
2018-04-10T12:47:20.591Z,932.25
2018-04-10T12:48:20.595Z,932.21
2018-04-10T12:49:20.584Z,932.20
2018-04-10T12:50:20.589Z,932.26
2018-04-10T12:51:20.601Z,932.23
2018-04-10T12:52:20.609Z,932.18
2018-04-10T12:53:20.608Z,932.15
2018-04-10T12:54:20.618Z,932.11
2018-04-10T12:55:20.623Z,932.11
2018-04-10T12:56:20.654Z,932.14
2018-04-10T12:57:20.637Z,932.12
2018-04-10T12:58:20.647Z,932.14
2018-04-10T12:59:20.647Z,932.14
2018-04-10T13:00:20.655Z,932.14
2018-04-10T13:01:20.655Z,932.14
2018-04-10T13:02:20.699Z,932.07
2018-04-10T13:03:20.665Z,932.09
2018-04-10T13:04:20.682Z,932.07
2018-04-10T13:05:20.671Z,932.04
2018-04-10T13:06:20.692Z,932.02